Time;durP1;ratioP1;P1;durP2;ratioP2;P2;SDS_P1;SDS_P2;PMS_P1;PMS_P2;Temp;Humidity;BMP_temperature;BMP_pressure;BME280_temperature;BME280_humidity;BME280_pressure;Samples;Min_cycle;Max_cycle;Signal;HPM_P1;HPM_P2
2023/06/13 00:00:44;;;;;;;;;;;;;;;17.47;45.03;97829.03;5064220;28;20336;-62
2023/06/13 00:03:13;;;;;;;;;;;;;;;17.42;44.79;97826.59;5064646;28;19967;-63
2023/06/13 00:05:46;;;;;;;;;;;;;;;17.35;44.95;97826.44;5064909;28;19921;-62
2023/06/13 00:08:17;;;;;;;;;;;;;;;17.46;44.87;97831.00;5068849;28;20353;-62
2023/06/13 00:10:46;;;;;;;;;;;;;;;17.46;44.55;97833.75;5059613;28;19931;-62
2023/06/13 00:13:15;;;;;;;;;;;;;;;17.50;45.23;97828.34;5067343;28;20274;-62
2023/06/13 00:15:48;;;;;;;;;;;;;;;17.38;45.47;97820.22;5062398;28;19921;-62
2023/06/13 00:18:17;;;;;;;;;;;;;;;17.41;45.45;97825.00;5082772;28;20285;-62
2023/06/13 00:20:45;;;;;;;;;;;;;;;17.32;45.57;97824.41;5071007;28;19959;-64
2023/06/13 00:23:14;;;;;;;;;;;;;;;17.35;45.33;97827.22;5076471;28;19967;-62
2023/06/13 00:25:42;;;;;;;;;;;;;;;17.27;45.29;97825.47;5071259;28;20019;-63
2023/06/13 00:28:11;;;;;;;;;;;;;;;17.31;45.46;97822.78;5067586;28;20396;-63
2023/06/13 00:30:40;;;;;;;;;;;;;;;17.16;46.02;97816.19;5057267;28;19921;-67
2023/06/13 00:33:07;;;;;;;;;;;;;;;17.04;46.33;97811.59;5043016;28;20377;-62
2023/06/13 00:35:35;;;;;;;;;;;;;;;17.13;45.76;97812.22;5073420;28;19920;-65
2023/06/13 00:38:07;;;;;;;;;;;;;;;17.02;46.20;97816.66;5052206;28;20262;-64
2023/06/13 00:40:35;;;;;;;;;;;;;;;17.14;46.04;97813.00;5057309;28;19921;-65
2023/06/13 00:43:02;;;;;;;;;;;;;;;17.04;46.04;97819.81;5083260;28;19920;-63
2023/06/13 00:45:33;;;;;;;;;;;;;;;17.02;46.03;97819.41;5054299;28;19960;-62
2023/06/13 00:48:03;;;;;;;;;;;;;;;16.95;46.26;97811.78;5072623;28;19967;-62
2023/06/13 00:50:32;;;;;;;;;;;;;;;16.93;46.54;97810.53;5083732;28;20365;-62
2023/06/13 00:53:01;;;;;;;;;;;;;;;16.86;46.90;97805.69;5048453;28;19966;-62
2023/06/13 00:55:28;;;;;;;;;;;;;;;16.93;46.39;97799.56;5055585;28;20011;-62
2023/06/13 00:57:57;;;;;;;;;;;;;;;16.98;46.33;97802.03;5070634;28;19974;-63
2023/06/13 01:00:26;;;;;;;;;;;;;;;16.81;46.90;97796.94;5055681;28;19982;-62
2023/06/13 01:02:57;;;;;;;;;;;;;;;16.94;46.62;97798.44;5052138;28;19939;-62
2023/06/13 01:05:28;;;;;;;;;;;;;;;16.86;46.93;97800.19;5044191;28;19920;-62
2023/06/13 01:07:57;;;;;;;;;;;;;;;16.79;46.79;97793.75;5079756;28;20277;-63
2023/06/13 01:10:25;;;;;;;;;;;;;;;16.76;47.19;97792.50;5063802;28;19920;-62
2023/06/13 01:13:00;;;;;;;;;;;;;;;16.69;47.16;97789.56;5061191;28;20015;-62
2023/06/13 01:15:28;;;;;;;;;;;;;;;16.82;47.01;97793.81;5081901;28;19924;-63
2023/06/13 01:17:58;;;;;;;;;;;;;;;16.77;47.10;97794.88;5081906;28;19920;-64
2023/06/13 01:20:27;;;;;;;;;;;;;;;16.76;47.17;97790.53;5077761;28;19927;-62
2023/06/13 01:22:57;;;;;;;;;;;;;;;16.82;46.68;97798.50;5056928;28;19921;-65
2023/06/13 01:25:29;;;;;;;;;;;;;;;16.84;46.95;97790.75;5073155;28;19928;-62
2023/06/13 01:27:58;;;;;;;;;;;;;;;16.48;47.72;97789.81;5069247;28;19990;-63
2023/06/13 01:30:26;;;;;;;;;;;;;;;16.61;47.32;97788.56;5071090;28;19989;-63
2023/06/13 01:32:54;;;;;;;;;;;;;;;16.76;47.23;97787.00;5070407;28;19924;-62
2023/06/13 01:35:22;;;;;;;;;;;;;;;16.76;47.04;97785.06;5067882;28;19921;-62
2023/06/13 01:37:50;;;;;;;;;;;;;;;16.69;47.08;97784.88;5067631;28;19973;-62
2023/06/13 01:40:18;;;;;;;;;;;;;;;16.37;47.88;97786.00;5065025;28;19928;-62
2023/06/13 01:42:46;;;;;;;;;;;;;;;16.26;48.47;97777.50;5072194;28;19921;-63
2023/06/13 01:45:15;;;;;;;;;;;;;;;16.28;48.24;97777.16;5071383;28;20015;-62
2023/06/13 01:47:45;;;;;;;;;;;;;;;16.35;48.58;97777.31;5073413;28;20372;-62
2023/06/13 01:50:14;;;;;;;;;;;;;;;16.36;48.12;97774.25;5086161;28;20342;-62
2023/06/13 01:52:43;;;;;;;;;;;;;;;16.34;48.04;97776.53;5074800;28;19920;-62
2023/06/13 01:55:14;;;;;;;;;;;;;;;16.39;48.02;97780.97;5060219;28;20011;-63
2023/06/13 01:57:44;;;;;;;;;;;;;;;16.34;48.12;97770.25;5064668;28;19924;-62
2023/06/13 02:00:13;;;;;;;;;;;;;;;16.34;48.17;97779.25;5071960;28;20018;-67
2023/06/13 02:02:43;;;;;;;;;;;;;;;16.06;48.49;97775.78;5059231;28;19960;-63
2023/06/13 02:05:12;;;;;;;;;;;;;;;16.30;48.22;97770.19;5073966;28;19921;-63
2023/06/13 02:07:40;;;;;;;;;;;;;;;16.17;48.38;97772.16;5073816;28;19925;-62
2023/06/13 02:10:08;;;;;;;;;;;;;;;16.11;48.51;97776.31;5069965;28;19924;-62
2023/06/13 02:12:36;;;;;;;;;;;;;;;16.11;48.44;97776.31;5063139;28;19956;-62
2023/06/13 02:15:08;;;;;;;;;;;;;;;16.08;48.92;97774.28;5071482;28;19924;-62
2023/06/13 02:17:36;;;;;;;;;;;;;;;16.09;48.84;97772.34;5069288;28;19928;-62
2023/06/13 02:20:06;;;;;;;;;;;;;;;16.05;48.92;97772.25;5077476;28;20309;-63
2023/06/13 02:22:34;;;;;;;;;;;;;;;16.12;48.75;97766.94;5069597;28;20396;-62
2023/06/13 02:25:03;;;;;;;;;;;;;;;16.09;48.80;97773.16;5072817;28;19991;-62
2023/06/13 02:27:31;;;;;;;;;;;;;;;15.98;49.12;97781.06;5073569;28;19975;-62
2023/06/13 02:30:00;;;;;;;;;;;;;;;15.85;49.59;97776.00;5050774;28;19982;-62
2023/06/13 02:32:29;;;;;;;;;;;;;;;15.83;49.31;97775.56;5067411;28;20361;-62
2023/06/13 02:34:57;;;;;;;;;;;;;;;15.76;49.66;97780.81;5066800;28;19935;-62
2023/06/13 02:37:26;;;;;;;;;;;;;;;15.89;49.36;97774.16;5050744;28;19959;-62
2023/06/13 02:39:56;;;;;;;;;;;;;;;15.97;49.18;97775.94;5068982;28;20019;-63
2023/06/13 02:42:24;;;;;;;;;;;;;;;16.03;49.11;97765.50;5070267;28;20011;-62
2023/06/13 02:44:52;;;;;;;;;;;;;;;15.92;49.35;97767.97;5064501;28;19921;-62
2023/06/13 02:47:22;;;;;;;;;;;;;;;15.97;49.34;97776.72;5052952;28;19932;-63
2023/06/13 02:49:50;;;;;;;;;;;;;;;15.83;49.39;97770.06;5054615;28;20008;-62
2023/06/13 02:52:19;;;;;;;;;;;;;;;15.98;49.45;97766.59;5069767;28;19920;-62
2023/06/13 02:54:48;;;;;;;;;;;;;;;15.63;50.29;97766.38;5059016;28;19921;-63
2023/06/13 02:57:16;;;;;;;;;;;;;;;15.83;49.93;97761.84;5065355;28;19929;-62
2023/06/13 02:59:44;;;;;;;;;;;;;;;15.88;50.03;97761.59;5048863;28;20274;-62
2023/06/13 03:02:12;;;;;;;;;;;;;;;15.75;49.94;97766.31;5051496;28;19921;-63
2023/06/13 03:04:40;;;;;;;;;;;;;;;15.76;50.18;97756.94;5068097;28;19935;-63
2023/06/13 03:07:10;;;;;;;;;;;;;;;15.74;50.23;97761.19;5052749;28;20015;-62
2023/06/13 03:09:39;;;;;;;;;;;;;;;15.70;50.10;97770.09;5045885;28;19924;-63
2023/06/13 03:12:10;;;;;;;;;;;;;;;15.67;50.39;97764.53;5050705;28;19921;-63
2023/06/13 03:14:43;;;;;;;;;;;;;;;15.64;50.20;97760.53;5055911;28;20272;-62
2023/06/13 03:17:11;;;;;;;;;;;;;;;15.65;50.14;97764.88;5067860;28;19956;-63
2023/06/13 03:19:38;;;;;;;;;;;;;;;15.55;50.42;97759.84;5054030;28;19929;-62
2023/06/13 03:22:06;;;;;;;;;;;;;;;15.67;50.15;97753.59;5045325;28;19955;-62
2023/06/13 03:24:35;;;;;;;;;;;;;;;15.41;50.45;97764.94;5067432;28;20034;-63
2023/06/13 03:27:03;;;;;;;;;;;;;;;15.59;50.00;97759.97;5071000;28;19924;-62
2023/06/13 03:29:33;;;;;;;;;;;;;;;15.66;50.04;97755.53;5070013;28;20019;-62
2023/06/13 03:32:01;;;;;;;;;;;;;;;15.61;50.31;97763.97;5061739;28;19931;-62
2023/06/13 03:34:31;;;;;;;;;;;;;;;15.60;50.03;97764.28;5068770;28;20015;-62
2023/06/13 03:37:03;;;;;;;;;;;;;;;15.47;50.62;97766.28;5072321;28;19920;-62
2023/06/13 03:39:33;;;;;;;;;;;;;;;15.49;50.79;97766.72;5067629;28;19935;-62
2023/06/13 03:42:01;;;;;;;;;;;;;;;15.55;50.31;97770.81;5065451;28;19924;-63
2023/06/13 03:44:29;;;;;;;;;;;;;;;15.56;50.69;97772.41;5063154;28;20023;-62
2023/06/13 03:46:59;;;;;;;;;;;;;;;15.50;50.47;97764.78;5065536;28;19921;-63
2023/06/13 03:49:27;;;;;;;;;;;;;;;15.36;50.71;97771.44;5071204;28;19948;-64
2023/06/13 03:51:56;;;;;;;;;;;;;;;15.34;50.82;97764.69;5071494;28;19928;-64
2023/06/13 03:54:24;;;;;;;;;;;;;;;15.41;50.85;97767.66;5088237;28;19952;-62
2023/06/13 03:56:52;;;;;;;;;;;;;;;15.59;50.22;97768.97;5070750;28;19924;-62
2023/06/13 03:59:20;;;;;;;;;;;;;;;15.56;50.71;97766.94;5064367;28;19921;-66
2023/06/13 04:01:48;;;;;;;;;;;;;;;15.30;50.77;97767.34;5071927;28;19920;-65
2023/06/13 04:04:18;;;;;;;;;;;;;;;15.39;50.36;97767.19;5067755;28;19928;-67
2023/06/13 04:06:49;;;;;;;;;;;;;;;15.43;50.67;97776.31;5070000;28;19983;-63
2023/06/13 04:09:20;;;;;;;;;;;;;;;15.37;50.93;97759.34;5066229;28;19921;-64
2023/06/13 04:11:48;;;;;;;;;;;;;;;15.27;51.32;97769.97;5070906;28;20007;-63
2023/06/13 04:14:15;;;;;;;;;;;;;;;15.40;50.84;97766.88;5066962;28;19928;-63
2023/06/13 04:16:44;;;;;;;;;;;;;;;15.46;50.76;97768.22;5070148;28;19943;-63
2023/06/13 04:19:14;;;;;;;;;;;;;;;15.43;50.62;97768.91;5060111;28;19952;-63
2023/06/13 04:21:43;;;;;;;;;;;;;;;15.59;50.66;97766.22;5065051;28;19946;-63
2023/06/13 04:24:12;;;;;;;;;;;;;;;15.37;50.88;97766.75;5069348;28;19925;-66
2023/06/13 04:26:40;;;;;;;;;;;;;;;15.24;51.34;97776.94;5066775;28;19924;-63
2023/06/13 04:29:09;;;;;;;;;;;;;;;15.37;51.46;97767.56;5073006;28;19969;-64
2023/06/13 04:31:37;;;;;;;;;;;;;;;15.23;51.67;97777.28;5060337;28;20380;-63
2023/06/13 04:34:07;;;;;;;;;;;;;;;15.27;51.15;97775.44;5070255;28;20557;-63
2023/06/13 04:36:35;;;;;;;;;;;;;;;15.24;51.71;97781.63;5057527;28;19987;-63
2023/06/13 04:39:06;;;;;;;;;;;;;;;15.30;51.60;97780.25;5081843;28;20034;-63
2023/06/13 04:41:34;;;;;;;;;;;;;;;15.24;51.31;97778.91;5063710;28;20011;-63
2023/06/13 04:44:05;;;;;;;;;;;;;;;15.35;51.61;97777.28;5059158;28;19980;-63
2023/06/13 04:46:33;;;;;;;;;;;;;;;15.57;50.67;97778.69;5063310;28;19935;-63
2023/06/13 04:49:01;;;;;;;;;;;;;;;15.33;51.86;97774.06;5062203;28;19921;-63
2023/06/13 04:51:29;;;;;;;;;;;;;;;15.43;51.53;97776.31;5069508;28;19920;-63
2023/06/13 04:54:00;;;;;;;;;;;;;;;15.45;51.31;97777.59;5067743;28;19920;-63
2023/06/13 04:56:29;;;;;;;;;;;;;;;15.50;51.14;97782.03;5070589;28;19966;-63
2023/06/13 04:59:00;;;;;;;;;;;;;;;15.62;50.67;97787.47;5064423;28;19932;-64
2023/06/13 05:01:32;;;;;;;;;;;;;;;15.73;50.96;97789.75;5068554;28;19959;-64
2023/06/13 05:04:00;;;;;;;;;;;;;;;15.55;51.18;97787.22;5081822;28;19952;-63
2023/06/13 05:06:29;;;;;;;;;;;;;;;15.77;50.79;97788.69;5067052;28;19970;-65
2023/06/13 05:08:57;;;;;;;;;;;;;;;15.82;50.75;97787.63;5066622;28;19966;-63
2023/06/13 05:11:25;;;;;;;;;;;;;;;16.00;50.65;97788.94;5069882;28;19935;-62
2023/06/13 05:13:54;;;;;;;;;;;;;;;16.12;50.04;97786.13;5071630;28;19964;-63
2023/06/13 05:16:29;;;;;;;;;;;;;;;16.04;50.05;97791.78;5065138;28;19927;-62
2023/06/13 05:19:00;;;;;;;;;;;;;;;16.07;49.93;97782.84;5064568;28;19920;-62
2023/06/13 05:21:28;;;;;;;;;;;;;;;16.27;49.67;97789.25;5065439;28;19932;-63
2023/06/13 05:23:58;;;;;;;;;;;;;;;16.26;49.69;97791.22;5077097;28;20020;-63
2023/06/13 05:26:27;;;;;;;;;;;;;;;16.00;50.15;97788.94;5071887;28;19932;-62
2023/06/13 05:28:57;;;;;;;;;;;;;;;15.97;50.24;97793.16;5068327;28;19920;-65
2023/06/13 05:31:24;;;;;;;;;;;;;;;16.18;49.64;97786.66;5068527;28;19963;-61
2023/06/13 05:33:52;;;;;;;;;;;;;;;16.21;49.31;97778.56;5082599;28;19931;-61
2023/06/13 05:36:20;;;;;;;;;;;;;;;16.32;49.57;97784.31;5086926;28;19975;-62
2023/06/13 05:38:48;;;;;;;;;;;;;;;16.34;49.25;97783.97;5091846;28;19956;-62
2023/06/13 05:41:16;;;;;;;;;;;;;;;16.50;48.04;97779.28;5091753;28;19969;-61
2023/06/13 05:43:44;;;;;;;;;;;;;;;16.39;48.63;97783.69;5091052;28;19920;-62
2023/06/13 05:46:13;;;;;;;;;;;;;;;16.24;48.47;97785.25;5080247;28;19920;-69
2023/06/13 05:48:41;;;;;;;;;;;;;;;16.52;48.61;97789.91;5086240;28;20273;-62
2023/06/13 05:51:09;;;;;;;;;;;;;;;16.61;48.28;97788.56;5091883;28;20394;-62
2023/06/13 05:53:37;;;;;;;;;;;;;;;16.53;48.44;97791.50;5094200;28;19920;-61
2023/06/13 05:56:06;;;;;;;;;;;;;;;16.69;47.82;97787.59;5091707;28;19927;-63
2023/06/13 05:58:33;;;;;;;;;;;;;;;16.84;47.41;97796.22;5092096;28;19928;-63
2023/06/13 06:01:03;;;;;;;;;;;;;;;17.12;46.63;97791.41;5076013;28;19920;-63
2023/06/13 06:03:33;;;;;;;;;;;;;;;17.08;47.29;97798.75;5075266;28;19959;-63
2023/06/13 06:06:04;;;;;;;;;;;;;;;17.24;46.80;97794.03;5092699;28;20031;-63
2023/06/13 06:08:32;;;;;;;;;;;;;;;17.24;47.21;97794.03;5089818;28;19928;-64
2023/06/13 06:11:00;;;;;;;;;;;;;;;17.34;45.80;97800.13;5089751;28;19955;-63
2023/06/13 06:13:28;;;;;;;;;;;;;;;17.51;46.05;97794.22;5088371;28;19942;-63
2023/06/13 06:15:56;;;;;;;;;;;;;;;17.47;45.51;97796.09;5086626;28;19932;-64
2023/06/13 06:18:23;;;;;;;;;;;;;;;17.47;46.04;97790.59;5083081;28;19963;-63
2023/06/13 06:20:53;;;;;;;;;;;;;;;17.59;45.31;97786.94;5071611;28;19920;-63
2023/06/13 06:23:21;;;;;;;;;;;;;;;17.64;45.49;97795.69;5088375;28;20277;-62
2023/06/13 06:25:48;;;;;;;;;;;;;;;17.76;45.06;97792.81;5069610;28;20018;-63
2023/06/13 06:28:16;;;;;;;;;;;;;;;18.01;43.46;97792.53;5088987;28;20254;-65
2023/06/13 06:30:44;;;;;;;;;;;;;;;17.98;43.62;97791.31;5085681;28;20707;-63
2023/06/13 06:33:12;;;;;;;;;;;;;;;17.96;43.63;97793.63;5087296;28;19932;-63
2023/06/13 06:35:40;;;;;;;;;;;;;;;17.94;43.49;97806.13;5076873;28;19920;-64
2023/06/13 06:38:09;;;;;;;;;;;;;;;18.01;43.92;97804.34;5070078;28;19920;-63
2023/06/13 06:40:37;;;;;;;;;;;;;;;18.01;42.04;97804.34;5091161;28;19927;-63
2023/06/13 06:43:05;;;;;;;;;;;;;;;17.90;42.27;97808.03;5073585;28;20445;-64
2023/06/13 06:45:35;;;;;;;;;;;;;;;18.01;42.34;97806.28;5072125;28;20015;-63
2023/06/13 06:48:03;;;;;;;;;;;;;;;18.08;41.70;97800.91;5065314;28;19942;-63
2023/06/13 06:50:32;;;;;;;;;;;;;;;18.13;42.19;97802.59;5090018;28;20663;-63
2023/06/13 06:53:00;;;;;;;;;;;;;;;18.14;41.63;97804.97;5085870;28;19920;-64
2023/06/13 06:55:29;;;;;;;;;;;;;;;18.16;41.76;97797.13;5090302;28;19935;-63
2023/06/13 06:57:56;;;;;;;;;;;;;;;18.25;41.63;97791.41;5088258;28;19920;-63
2023/06/13 07:00:25;;;;;;;;;;;;;;;18.21;41.55;97801.53;5086357;28;19965;-60
2023/06/13 07:02:54;;;;;;;;;;;;;;;18.30;41.08;97793.88;5085220;28;19920;-60
2023/06/13 07:05:22;;;;;;;;;;;;;;;18.35;40.76;97784.53;5074226;28;19920;-62
2023/06/13 07:07:50;;;;;;;;;;;;;;;18.58;40.32;97790.81;5087808;28;20377;-63
2023/06/13 07:10:18;;;;;;;;;;;;;;;18.67;39.89;97796.88;5091112;28;19974;-63
2023/06/13 07:12:47;;;;;;;;;;;;;;;18.87;39.78;97794.09;5088995;28;19978;-60
2023/06/13 07:15:15;;;;;;;;;;;;;;;19.05;40.55;97793.19;5088083;28;20400;-62
2023/06/13 07:17:43;;;;;;;;;;;;;;;19.01;37.89;97778.59;5071261;28;19932;-61
2023/06/13 07:20:12;;;;;;;;;;;;;;;19.06;38.58;97791.25;5070195;28;19920;-64
2023/06/13 07:22:40;;;;;;;;;;;;;;;19.10;38.62;97783.84;5087934;28;19936;-61
2023/06/13 07:25:08;;;;;;;;;;;;;;;19.22;38.47;97794.63;5087519;28;20082;-61
2023/06/13 07:27:36;;;;;;;;;;;;;;;19.15;37.97;97794.53;5088224;28;19921;-61
2023/06/13 07:30:05;;;;;;;;;;;;;;;19.12;38.96;97778.75;5087947;28;19932;-61
2023/06/13 07:32:33;;;;;;;;;;;;;;;19.23;38.39;97785.22;5088786;28;20342;-63
2023/06/13 07:35:02;;;;;;;;;;;;;;;19.34;38.20;97785.38;5083324;28;19924;-61
2023/06/13 07:37:33;;;;;;;;;;;;;;;19.34;36.62;97780.66;5082008;28;19924;-61
2023/06/13 07:40:02;;;;;;;;;;;;;;;19.18;37.38;97780.03;5075376;28;20400;-63
2023/06/13 07:42:30;;;;;;;;;;;;;;;19.28;36.42;97779.41;5082510;28;19964;-62
2023/06/13 07:44:58;;;;;;;;;;;;;;;19.32;37.50;97785.72;5087813;28;19939;-62
2023/06/13 07:47:27;;;;;;;;;;;;;;;19.44;37.64;97783.91;5075795;28;19965;-61
2023/06/13 07:49:55;;;;;;;;;;;;;;;19.52;35.50;97785.63;5087503;28;19939;-62
2023/06/13 07:52:23;;;;;;;;;;;;;;;19.54;34.94;97772.25;5084778;28;21738;-62
2023/06/13 07:54:51;;;;;;;;;;;;;;;19.62;36.24;97780.28;5069381;28;19924;-62
2023/06/13 07:57:19;;;;;;;;;;;;;;;19.78;34.79;97771.03;5086547;28;19927;-63
2023/06/13 08:00:12;;;;;;;;;;;;;;;19.81;33.43;97770.25;5069589;28;19942;-62
2023/06/13 08:02:42;;;;;;;;;;;;;;;19.80;34.34;97768.69;5070672;28;20672;-62
2023/06/13 08:05:10;;;;;;;;;;;;;;;19.90;34.03;97762.50;5087289;28;20015;-63
2023/06/13 08:07:38;;;;;;;;;;;;;;;19.98;34.30;97768.91;5086064;28;20368;-62
2023/06/13 08:10:07;;;;;;;;;;;;;;;20.11;33.94;97761.94;5084910;28;19991;-63
2023/06/13 08:12:35;;;;;;;;;;;;;;;20.13;32.59;97756.84;5088051;28;19932;-62
2023/06/13 08:15:05;;;;;;;;;;;;;;;20.17;33.58;97770.66;5065578;28;19924;-62
2023/06/13 08:17:34;;;;;;;;;;;;;;;20.25;31.96;97759.34;5072531;28;19948;-61
2023/06/13 08:20:05;;;;;;;;;;;;;;;20.17;31.12;97757.66;5070711;28;19933;-61
2023/06/13 08:22:33;;;;;;;;;;;;;;;20.13;31.77;97751.31;5074758;28;19936;-62
2023/06/13 08:25:01;;;;;;;;;;;;;;;20.14;32.40;97762.00;5060119;28;20315;-62
2023/06/13 08:27:29;;;;;;;;;;;;;;;20.21;31.74;97755.75;5057002;28;19920;-62
2023/06/13 08:29:57;;;;;;;;;;;;;;;20.29;32.36;97751.88;5057182;28;19924;-62
2023/06/13 08:32:25;;;;;;;;;;;;;;;20.26;31.67;97747.13;5059573;28;19978;-60
2023/06/13 08:34:54;;;;;;;;;;;;;;;20.35;32.36;97749.59;5073815;28;19925;-61
2023/06/13 08:37:24;;;;;;;;;;;;;;;20.37;32.74;97750.78;5057981;28;19991;-61
2023/06/13 08:39:51;;;;;;;;;;;;;;;20.44;33.28;97752.81;5055881;28;19920;-62
2023/06/13 08:42:19;;;;;;;;;;;;;;;20.48;33.05;97752.88;5059089;28;20008;-62
2023/06/13 08:44:49;;;;;;;;;;;;;;;20.56;32.92;97746.25;5059336;28;20045;-61
2023/06/13 08:47:18;;;;;;;;;;;;;;;20.56;32.66;97740.72;5057050;28;20003;-61
2023/06/13 08:50:03;;;;;;;;;;;;;;;20.61;32.61;97741.19;5056455;28;20369;-62
2023/06/13 08:52:35;;;;;;;;;;;;;;;20.65;31.73;97732.91;5075441;28;19921;-61
2023/06/13 08:55:04;;;;;;;;;;;;;;;20.55;32.48;97730.84;5059845;28;20027;-62
2023/06/13 08:57:53;;;;;;;;;;;;;;;20.56;33.52;97726.91;5059110;28;20332;-61
2023/06/13 09:00:22;;;;;;;;;;;;;;;20.59;32.27;97721.44;5057496;28;19932;-61
2023/06/13 09:02:50;;;;;;;;;;;;;;;20.45;32.59;97726.00;5056903;28;19921;-61
2023/06/13 09:05:20;;;;;;;;;;;;;;;20.44;32.98;97721.66;5054489;28;19935;-61
2023/06/13 09:07:50;;;;;;;;;;;;;;;20.42;32.01;97722.06;5058068;28;19927;-61
2023/06/13 09:10:17;;;;;;;;;;;;;;;20.46;33.07;97716.56;5057292;28;20035;-61
2023/06/13 09:12:49;;;;;;;;;;;;;;;20.54;32.54;97705.22;5062416;28;20661;-61
2023/06/13 09:15:17;;;;;;;;;;;;;;;20.62;32.44;97708.84;5071311;28;20352;-61
2023/06/13 09:17:45;;;;;;;;;;;;;;;20.64;33.78;97700.97;5060618;28;19920;-61
2023/06/13 09:20:13;;;;;;;;;;;;;;;20.81;31.97;97708.59;5060096;28;19966;-61
2023/06/13 09:22:43;;;;;;;;;;;;;;;20.88;33.36;97708.66;5061984;28;19943;-61
2023/06/13 09:25:16;;;;;;;;;;;;;;;20.92;32.29;97705.91;5068173;28;20337;-61
2023/06/13 09:27:45;;;;;;;;;;;;;;;20.91;30.69;97709.84;5047456;28;20358;-61
2023/06/13 09:30:15;;;;;;;;;;;;;;;20.93;31.33;97711.06;5047351;28;19920;-62
2023/06/13 09:32:44;;;;;;;;;;;;;;;20.97;31.15;97705.53;5066572;28;19921;-62
2023/06/13 09:35:12;;;;;;;;;;;;;;;20.92;31.26;97705.91;5058061;28;19933;-62
2023/06/13 09:37:47;;;;;;;;;;;;;;;21.09;30.57;97704.44;5062287;28;19979;-62
2023/06/13 09:40:17;;;;;;;;;;;;;;;20.92;30.42;97695.66;5064889;28;20141;-62
2023/06/13 09:42:44;;;;;;;;;;;;;;;20.96;30.89;97698.44;5049346;28;19920;-62
2023/06/13 09:45:23;;;;;;;;;;;;;;;20.82;30.07;97699.13;5045295;28;19961;-62
2023/06/13 09:47:51;;;;;;;;;;;;;;;20.90;30.04;97703.53;5065994;28;19920;-62
2023/06/13 09:50:19;;;;;;;;;;;;;;;20.97;30.92;97702.78;5063849;28;19931;-62
2023/06/13 09:52:47;;;;;;;;;;;;;;;20.98;29.93;97703.56;5066900;28;20327;-63
2023/06/13 09:55:20;;;;;;;;;;;;;;;21.04;30.06;97696.50;5047950;28;19932;-63
2023/06/13 09:57:51;;;;;;;;;;;;;;;20.92;30.03;97703.94;5064378;28;19964;-63
2023/06/13 10:00:39;;;;;;;;;;;;;;;21.08;30.25;97695.34;5069519;28;19920;-63
2023/06/13 10:03:07;;;;;;;;;;;;;;;21.09;31.64;97698.91;5067367;28;19925;-63
2023/06/13 10:05:47;;;;;;;;;;;;;;;21.16;30.12;97683.16;5070393;28;19925;-63
2023/06/13 10:08:15;;;;;;;;;;;;;;;21.26;30.15;97691.91;5048743;28;20243;-63
2023/06/13 10:10:44;;;;;;;;;;;;;;;21.24;31.44;97689.50;5059017;28;20046;-63
2023/06/13 10:13:14;;;;;;;;;;;;;;;21.17;28.92;97682.00;5063141;28;20377;-63
2023/06/13 10:15:44;;;;;;;;;;;;;;;21.21;28.22;97679.25;5065594;28;20357;-66
2023/06/13 10:18:12;;;;;;;;;;;;;;;21.22;30.12;97669.78;5053742;28;19924;-65
2023/06/13 10:20:40;;;;;;;;;;;;;;;21.44;28.77;97679.78;5063227;28;19974;-64
2023/06/13 10:23:08;;;;;;;;;;;;;;;21.46;29.11;97673.84;4981473;28;2034599;-65
2023/06/13 10:25:36;;;;;;;;;;;;;;;21.55;29.03;97681.78;5083575;28;20010;-65
2023/06/13 10:28:06;;;;;;;;;;;;;;;21.59;28.24;97672.34;5081538;28;20010;-65
2023/06/13 10:30:38;;;;;;;;;;;;;;;21.62;29.33;97665.22;5085236;28;20007;-65
2023/06/13 10:33:17;;;;;;;;;;;;;;;21.65;29.43;97669.97;5081372;28;19927;-65
2023/06/13 10:35:49;;;;;;;;;;;;;;;21.64;30.48;97657.34;5083597;28;19920;-65
2023/06/13 10:38:33;;;;;;;;;;;;;;;21.86;28.54;97660.94;5081067;28;20365;-65
2023/06/13 10:41:06;;;;;;;;;;;;;;;21.87;27.45;97665.28;5090835;28;19924;-65
2023/06/13 10:43:37;;;;;;;;;;;;;;;21.82;28.68;97669.22;5085540;28;21926;-65
2023/06/13 10:46:06;;;;;;;;;;;;;;;21.73;29.38;97659.72;5091641;28;19920;-65
2023/06/13 10:48:35;;;;;;;;;;;;;;;21.78;28.48;97651.03;5090727;28;20414;-65
2023/06/13 10:51:03;;;;;;;;;;;;;;;21.81;30.08;97661.34;5091600;28;19920;-65
2023/06/13 10:53:33;;;;;;;;;;;;;;;21.94;28.84;97644.00;5078320;28;19924;-65
2023/06/13 10:56:01;;;;;;;;;;;;;;;21.94;27.76;97652.28;5067815;28;19924;-65
2023/06/13 10:58:29;;;;;;;;;;;;;;;21.97;28.42;97645.94;5089038;28;19920;-65
2023/06/13 11:00:58;;;;;;;;;;;;;;;21.94;28.31;97652.28;5087178;28;20022;-65
2023/06/13 11:03:29;;;;;;;;;;;;;;;21.91;28.52;97647.53;5082616;28;20030;-65
2023/06/13 11:05:57;;;;;;;;;;;;;;;21.97;28.38;97647.94;5090314;28;19920;-65
2023/06/13 11:08:26;;;;;;;;;;;;;;;21.94;29.77;97646.75;5081205;28;20036;-65
2023/06/13 11:10:54;;;;;;;;;;;;;;;21.79;28.08;97644.34;5077371;28;19926;-65
2023/06/13 11:13:22;;;;;;;;;;;;;;;21.83;28.55;97634.84;5074241;28;20026;-65
2023/06/13 11:15:54;;;;;;;;;;;;;;;21.90;28.37;97640.41;5084899;28;20014;-65
2023/06/13 11:18:32;;;;;;;;;;;;;;;21.99;28.96;97640.03;5081066;28;20018;-65
2023/06/13 11:21:01;;;;;;;;;;;;;;;21.96;26.73;97638.06;5089604;28;19973;-65
2023/06/13 11:23:40;;;;;;;;;;;;;;;22.04;27.03;97633.31;5084209;28;19928;-64
2023/06/13 11:26:08;;;;;;;;;;;;;;;22.01;29.61;97621.06;5070338;28;20400;-65
2023/06/13 11:28:35;;;;;;;;;;;;;;;21.95;28.81;97623.44;5067881;28;19920;-65
2023/06/13 11:31:04;;;;;;;;;;;;;;;21.99;26.84;97626.19;5069104;28;19946;-65
2023/06/13 11:33:36;;;;;;;;;;;;;;;22.16;26.59;97619.94;5063924;28;19927;-65
2023/06/13 11:36:04;;;;;;;;;;;;;;;22.23;26.75;97628.22;5062328;28;20011;-66
2023/06/13 11:38:32;;;;;;;;;;;;;;;22.14;26.79;97616.75;5081546;28;19979;-66
2023/06/13 11:41:00;;;;;;;;;;;;;;;22.23;26.70;97619.91;5063761;28;19966;-65
2023/06/13 11:43:28;;;;;;;;;;;;;;;22.30;26.36;97618.34;5061317;28;19921;-65
2023/06/13 11:45:58;;;;;;;;;;;;;;;22.32;26.77;97608.47;5068513;28;19943;-66
2023/06/13 11:48:26;;;;;;;;;;;;;;;22.31;25.53;97606.88;5066169;28;20289;-66
2023/06/13 11:51:10;;;;;;;;;;;;;;;22.18;25.61;97602.94;5062278;28;19989;-66
2023/06/13 11:54:02;;;;;;;;;;;;;;;22.13;26.18;97600.56;5064993;28;19929;-65
2023/06/13 11:56:34;;;;;;;;;;;;;;;22.24;25.83;97609.63;5043547;28;19924;-65
2023/06/13 11:59:13;;;;;;;;;;;;;;;22.36;26.65;97591.84;5068124;28;19932;-65
2023/06/13 12:01:41;;;;;;;;;;;;;;;22.48;25.50;97600.53;5068226;28;19933;-65
2023/06/13 12:04:11;;;;;;;;;;;;;;;22.56;24.47;97594.97;5059142;28;19931;-65
2023/06/13 12:06:40;;;;;;;;;;;;;;;22.51;24.95;97595.38;5067307;28;19958;-64
2023/06/13 12:09:08;;;;;;;;;;;;;;;22.51;26.07;97587.88;5067411;28;19927;-65
2023/06/13 12:11:36;;;;;;;;;;;;;;;22.72;25.51;97598.91;5066653;28;19920;-66
2023/06/13 12:14:06;;;;;;;;;;;;;;;22.61;25.40;97592.59;5063444;28;20350;-65
2023/06/13 12:16:34;;;;;;;;;;;;;;;22.55;25.25;97602.50;5066693;28;19928;-65
2023/06/13 12:19:03;;;;;;;;;;;;;;;22.58;25.54;97598.91;5064275;28;19924;-65
2023/06/13 12:21:31;;;;;;;;;;;;;;;22.52;26.38;97594.19;5069105;28;19928;-64
2023/06/13 12:24:01;;;;;;;;;;;;;;;22.61;27.08;97591.81;5065724;28;19966;-64
2023/06/13 12:26:31;;;;;;;;;;;;;;;22.58;27.33;97590.63;5053773;28;20362;-65
2023/06/13 12:29:01;;;;;;;;;;;;;;;22.63;26.16;97578.34;5059828;28;20338;-64
2023/06/13 12:31:30;;;;;;;;;;;;;;;22.73;26.52;97583.06;5068202;28;19927;-64
2023/06/13 12:34:04;;;;;;;;;;;;;;;22.71;26.39;97568.84;5059407;28;19930;-64
2023/06/13 12:36:37;;;;;;;;;;;;;;;22.67;27.11;97563.31;5065915;28;20435;-64
2023/06/13 12:39:06;;;;;;;;;;;;;;;22.60;25.86;97562.56;5061419;28;19947;-64
2023/06/13 12:41:34;;;;;;;;;;;;;;;22.79;25.17;97575.94;5061072;28;19948;-64
2023/06/13 12:44:02;;;;;;;;;;;;;;;22.79;26.38;97575.13;5060135;28;19925;-64
2023/06/13 12:46:30;;;;;;;;;;;;;;;23.02;24.60;97567.19;5072524;28;19924;-64
2023/06/13 12:49:01;;;;;;;;;;;;;;;22.66;24.56;97567.28;5073788;28;19931;-64
2023/06/13 12:51:29;;;;;;;;;;;;;;;22.60;26.50;97551.47;5065964;28;19928;-64
2023/06/13 12:54:09;;;;;;;;;;;;;;;22.61;25.83;97556.59;5074112;28;20369;-64
2023/06/13 12:56:37;;;;;;;;;;;;;;;22.77;25.79;97567.25;5070949;28;20027;-64
2023/06/13 12:59:06;;;;;;;;;;;;;;;22.96;25.49;97566.81;5067872;28;20349;-65